Time;durP1;ratioP1;P1;durP2;ratioP2;P2;SDS_P1;SDS_P2;PMS_P1;PMS_P2;Temp;Humidity;BMP_temperature;BMP_pressure;BME280_temperature;BME280_humidity;BME280_pressure;Samples;Min_cycle;Max_cycle;Signal;HPM_P1;HPM_P2
2023/12/21 00:01:19;;;;;;;23.92;4.90;;;10.60;99.90;;;;;;5001260;28;20049;-59
2023/12/21 00:03:45;;;;;;;24.83;4.70;;;10.60;99.90;;;;;;4980085;28;20045;-59
2023/12/21 00:06:11;;;;;;;27.50;5.20;;;10.60;99.90;;;;;;5015653;28;20567;-59
2023/12/21 00:08:37;;;;;;;22.50;3.95;;;10.60;99.90;;;;;;4987735;28;20169;-60
2023/12/21 00:11:02;;;;;;;24.10;4.72;;;10.60;99.90;;;;;;5002079;28;20057;-60
2023/12/21 00:13:28;;;;;;;22.75;3.78;;;10.60;99.90;;;;;;5004867;28;20372;-59
2023/12/21 00:15:54;;;;;;;24.48;6.60;;;10.60;99.90;;;;;;5004179;28;20108;-60
2023/12/21 00:18:20;;;;;;;27.10;4.70;;;10.60;99.90;;;;;;5001604;28;20049;-60
2023/12/21 00:20:45;;;;;;;27.30;4.57;;;10.60;99.90;;;;;;4986583;28;20042;-59
2023/12/21 00:23:11;;;;;;;29.27;5.28;;;10.60;99.90;;;;;;4972506;28;20049;-60
2023/12/21 00:25:37;;;;;;;19.55;4.15;;;10.60;99.90;;;;;;4987923;28;20096;-59
2023/12/21 00:28:02;;;;;;;22.85;3.90;;;10.60;99.90;;;;;;5004612;28;20455;-60
2023/12/21 00:30:28;;;;;;;19.70;3.85;;;10.60;99.90;;;;;;5003438;28;22051;-59
2023/12/21 00:32:54;;;;;;;23.08;4.10;;;10.60;99.90;;;;;;4985995;28;20316;-59
2023/12/21 00:35:19;;;;;;;24.17;3.97;;;10.60;99.90;;;;;;5007134;28;20034;-60
2023/12/21 00:37:45;;;;;;;26.35;5.15;;;10.60;99.90;;;;;;5001904;28;20044;-60
2023/12/21 00:40:11;;;;;;;24.48;4.13;;;10.60;99.90;;;;;;5002190;28;20037;-60
2023/12/21 00:42:41;;;;;;;25.23;5.03;;;10.60;99.90;;;;;;5004188;28;20103;-60
2023/12/21 00:45:07;;;;;;;17.60;3.63;;;10.60;99.90;;;;;;4987632;28;20517;-59
2023/12/21 00:47:34;;;;;;;26.17;4.85;;;10.60;99.90;;;;;;4999299;28;20054;-59
2023/12/21 00:49:59;;;;;;;19.92;3.90;;;10.60;99.90;;;;;;5003299;28;20042;-60
2023/12/21 00:52:25;;;;;;;20.85;3.72;;;10.60;99.90;;;;;;4982233;28;20409;-59
2023/12/21 00:54:51;;;;;;;21.80;3.88;;;10.60;99.90;;;;;;5002769;28;20042;-60
2023/12/21 00:57:17;;;;;;;28.40;3.67;;;10.60;99.90;;;;;;5005625;28;20091;-60
2023/12/21 00:59:43;;;;;;;22.88;5.15;;;10.60;99.90;;;;;;4987281;28;20561;-60
2023/12/21 01:02:09;;;;;;;24.05;4.20;;;10.60;99.90;;;;;;4997340;28;20135;-60
2023/12/21 01:04:35;;;;;;;20.55;4.13;;;10.60;99.90;;;;;;5000760;28;20050;-60
2023/12/21 01:07:01;;;;;;;16.10;3.50;;;10.60;99.90;;;;;;4993864;28;20044;-60
2023/12/21 01:09:28;;;;;;;14.95;3.58;;;10.60;99.90;;;;;;5003860;28;20369;-60
2023/12/21 01:11:53;;;;;;;22.35;5.00;;;10.60;99.90;;;;;;5002001;28;20539;-60
2023/12/21 01:14:19;;;;;;;23.40;4.25;;;10.50;99.90;;;;;;4988880;28;20045;-60
2023/12/21 01:16:45;;;;;;;24.02;4.38;;;10.60;99.90;;;;;;4973013;28;20105;-60
2023/12/21 01:19:10;;;;;;;28.17;4.25;;;10.50;99.90;;;;;;4991416;28;20041;-60
2023/12/21 01:21:37;;;;;;;20.88;3.53;;;10.50;99.90;;;;;;4989614;28;20053;-59
2023/12/21 01:24:04;;;;;;;21.38;4.78;;;10.50;99.90;;;;;;5004153;28;20053;-60
2023/12/21 01:26:30;;;;;;;22.05;4.20;;;10.50;99.90;;;;;;4999603;28;20463;-59
2023/12/21 01:28:56;;;;;;;28.17;5.03;;;10.50;99.90;;;;;;5006883;28;20108;-60
2023/12/21 01:31:22;;;;;;;21.52;4.32;;;10.50;99.90;;;;;;5017413;28;20042;-59
2023/12/21 01:33:47;;;;;;;23.58;4.28;;;10.50;99.90;;;;;;5003985;28;20042;-60
2023/12/21 01:36:13;;;;;;;23.77;4.53;;;10.50;99.90;;;;;;4989909;28;20052;-60
2023/12/21 01:38:39;;;;;;;27.65;4.50;;;10.50;99.90;;;;;;4987101;28;20042;-59
2023/12/21 01:41:05;;;;;;;23.23;4.38;;;10.40;99.90;;;;;;5005176;28;20513;-59
2023/12/21 01:43:30;;;;;;;18.27;4.22;;;10.40;99.90;;;;;;4987460;28;20100;-60
2023/12/21 01:45:58;;;;;;;26.30;4.63;;;10.50;99.90;;;;;;4999707;28;20406;-60
2023/12/21 01:48:26;;;;;;;30.38;4.57;;;10.40;99.90;;;;;;4981260;28;20053;-60
2023/12/21 01:50:53;;;;;;;21.95;4.25;;;10.40;99.90;;;;;;5002243;28;20499;-60
2023/12/21 01:53:19;;;;;;;24.42;4.68;;;10.40;99.90;;;;;;5007316;28;20041;-60
2023/12/21 01:55:45;;;;;;;27.40;4.97;;;10.50;99.90;;;;;;5001902;28;20065;-60
2023/12/21 01:58:11;;;;;;;24.33;4.65;;;10.40;99.90;;;;;;5007281;28;20448;-60
2023/12/21 02:00:37;;;;;;;27.95;5.40;;;10.40;99.90;;;;;;4986046;28;20046;-59
2023/12/21 02:03:04;;;;;;;24.02;4.30;;;10.40;99.90;;;;;;4987113;28;20041;-60
2023/12/21 02:05:30;;;;;;;15.20;5.00;;;10.50;99.90;;;;;;5003032;28;20479;-60
2023/12/21 02:07:56;;;;;;;23.83;4.13;;;10.40;99.90;;;;;;4992023;28;20045;-60
2023/12/21 02:10:22;;;;;;;27.45;4.97;;;10.40;99.90;;;;;;5003290;28;20159;-60
2023/12/21 02:12:47;;;;;;;24.33;3.95;;;10.40;99.90;;;;;;4981904;28;20057;-60
2023/12/21 02:15:13;;;;;;;27.70;4.32;;;10.40;99.90;;;;;;4999439;28;20052;-60
2023/12/21 02:17:42;;;;;;;24.75;5.15;;;10.50;99.90;;;;;;4995596;28;20041;-60
2023/12/21 02:20:09;;;;;;;22.10;4.97;;;10.40;99.90;;;;;;4986382;28;20089;-60
2023/12/21 02:22:39;;;;;;;33.22;5.00;;;10.40;99.90;;;;;;4989048;28;20085;-60
2023/12/21 02:25:05;;;;;;;19.38;4.22;;;10.40;99.90;;;;;;5002360;28;20054;-60
2023/12/21 02:27:31;;;;;;;31.08;5.43;;;10.40;99.90;;;;;;5004608;28;20141;-60
2023/12/21 02:29:57;;;;;;;25.63;4.00;;;10.40;99.90;;;;;;5005569;28;20048;-60
2023/12/21 02:32:23;;;;;;;19.75;4.60;;;10.40;99.90;;;;;;5000664;28;20049;-60
2023/12/21 02:34:49;;;;;;;24.98;6.10;;;10.40;99.90;;;;;;5001799;28;20049;-60
2023/12/21 02:37:15;;;;;;;19.80;5.15;;;10.40;99.90;;;;;;4989588;28;20095;-60
2023/12/21 02:39:40;;;;;;;18.90;4.43;;;10.40;99.90;;;;;;5003123;28;20164;-60
2023/12/21 02:42:06;;;;;;;18.13;5.55;;;10.40;99.90;;;;;;5002605;28;20034;-60
2023/12/21 02:44:32;;;;;;;23.63;4.20;;;10.40;99.90;;;;;;4992552;28;20904;-60
2023/12/21 02:46:58;;;;;;;24.83;4.82;;;10.40;99.90;;;;;;5002224;28;20045;-60
2023/12/21 02:49:24;;;;;;;21.73;3.70;;;10.40;99.90;;;;;;4979421;28;20052;-60
2023/12/21 02:51:49;;;;;;;21.23;4.43;;;10.40;99.90;;;;;;4998966;28;20050;-60
2023/12/21 02:54:15;;;;;;;18.42;3.83;;;10.40;99.90;;;;;;5002487;28;20101;-60
2023/12/21 02:56:41;;;;;;;21.52;4.55;;;10.40;99.90;;;;;;4987044;28;20557;-60
2023/12/21 02:59:06;;;;;;;19.05;4.00;;;10.40;99.90;;;;;;5004380;28;20101;-60
2023/12/21 03:01:32;;;;;;;24.73;6.45;;;10.40;99.90;;;;;;4983944;28;20525;-60
2023/12/21 03:04:00;;;;;;;20.50;4.82;;;10.40;99.90;;;;;;4979790;28;20037;-60
2023/12/21 03:06:26;;;;;;;22.33;5.68;;;10.40;99.90;;;;;;5003391;28;20498;-60
2023/12/21 03:08:52;;;;;;;28.33;4.65;;;10.40;99.90;;;;;;4983795;28;20096;-59
2023/12/21 03:11:18;;;;;;;22.05;5.00;;;10.40;99.90;;;;;;5011258;28;20201;-59
2023/12/21 03:13:44;;;;;;;19.95;4.20;;;10.40;99.90;;;;;;5000354;28;20540;-60
2023/12/21 03:16:09;;;;;;;21.25;4.20;;;10.40;99.90;;;;;;4998820;28;20125;-60
2023/12/21 03:18:36;;;;;;;30.05;4.97;;;10.40;99.90;;;;;;4999326;28;20046;-60
2023/12/21 03:21:02;;;;;;;23.05;4.88;;;10.50;99.90;;;;;;5005810;28;20064;-59
2023/12/21 03:23:28;;;;;;;22.48;3.85;;;10.50;99.90;;;;;;5006076;28;20066;-59
2023/12/21 03:25:54;;;;;;;17.77;4.00;;;10.50;99.90;;;;;;4981314;28;20052;-60
2023/12/21 03:28:20;;;;;;;20.92;3.90;;;10.50;99.90;;;;;;5002931;28;20126;-60
2023/12/21 03:30:45;;;;;;;12.65;3.80;;;10.50;99.90;;;;;;4991793;28;20116;-59
2023/12/21 03:33:11;;;;;;;19.98;3.95;;;10.50;99.90;;;;;;5002681;28;20046;-59
2023/12/21 03:35:37;;;;;;;16.75;3.67;;;10.50;99.90;;;;;;4987157;28;20053;-59
2023/12/21 03:38:03;;;;;;;19.63;4.35;;;10.50;99.90;;;;;;5002535;28;20100;-59
2023/12/21 03:40:28;;;;;;;21.27;4.03;;;10.50;99.90;;;;;;5001036;28;20473;-60
2023/12/21 03:42:54;;;;;;;21.33;4.50;;;10.60;99.90;;;;;;5008432;28;20222;-59
2023/12/21 03:45:20;;;;;;;24.13;6.05;;;10.60;99.90;;;;;;4990831;28;20084;-60
2023/12/21 03:47:46;;;;;;;21.13;4.40;;;10.50;99.90;;;;;;5003741;28;20045;-60
2023/12/21 03:50:12;;;;;;;27.75;4.47;;;10.60;99.90;;;;;;5009410;28;20045;-60
2023/12/21 03:52:37;;;;;;;22.83;4.38;;;10.50;99.90;;;;;;5009243;28;20457;-60
2023/12/21 03:55:04;;;;;;;23.02;3.95;;;10.50;99.90;;;;;;5006012;28;20038;-60
2023/12/21 03:57:29;;;;;;;13.75;3.67;;;10.50;99.90;;;;;;4993054;28;20691;-59
2023/12/21 03:59:55;;;;;;;17.65;4.18;;;10.60;99.90;;;;;;4988495;28;20042;-60
2023/12/21 04:02:21;;;;;;;25.67;5.53;;;10.50;99.90;;;;;;5000991;28;20084;-60
2023/12/21 04:04:46;;;;;;;17.92;2.95;;;10.50;99.90;;;;;;5004889;28;20328;-60
2023/12/21 04:07:12;;;;;;;15.80;3.92;;;10.50;99.90;;;;;;4987140;28;20131;-60
2023/12/21 04:09:38;;;;;;;25.45;4.05;;;10.50;99.90;;;;;;5001705;28;20046;-59
2023/12/21 04:12:05;;;;;;;20.90;4.68;;;10.50;99.90;;;;;;5021874;28;20057;-60
2023/12/21 04:14:31;;;;;;;14.73;3.42;;;10.50;99.90;;;;;;4992779;28;20095;-60
2023/12/21 04:16:56;;;;;;;18.50;3.58;;;10.60;99.90;;;;;;4990404;28;20486;-60
2023/12/21 04:19:22;;;;;;;21.70;3.88;;;10.50;99.90;;;;;;5003093;28;20597;-59
2023/12/21 04:21:48;;;;;;;18.52;3.88;;;10.50;99.90;;;;;;5004579;28;20495;-59
2023/12/21 04:24:14;;;;;;;18.40;3.65;;;10.50;99.90;;;;;;4985944;28;20518;-60
2023/12/21 04:26:40;;;;;;;19.38;4.75;;;10.50;99.90;;;;;;5000335;28;20381;-59
2023/12/21 04:29:06;;;;;;;18.92;4.03;;;10.50;99.90;;;;;;4995955;28;20049;-59
2023/12/21 04:31:31;;;;;;;18.85;4.30;;;10.50;99.90;;;;;;4996906;28;20183;-59
2023/12/21 04:33:57;;;;;;;20.73;4.30;;;10.50;99.90;;;;;;4990522;28;20621;-59
2023/12/21 04:36:23;;;;;;;17.75;4.93;;;10.50;99.90;;;;;;4975871;28;20076;-59
2023/12/21 04:38:49;;;;;;;17.98;4.40;;;10.50;99.90;;;;;;4988086;28;20825;-59
2023/12/21 04:41:14;;;;;;;23.33;4.45;;;10.40;99.90;;;;;;4979291;28;20092;-59
2023/12/21 04:43:41;;;;;;;23.48;4.85;;;10.40;99.90;;;;;;5008633;28;20063;-59
2023/12/21 04:46:07;;;;;;;22.30;5.13;;;10.40;99.90;;;;;;5005392;28;20115;-59
2023/12/21 05:13:31;;;;;;;27.90;4.25;;;10.40;99.90;;;;;;5097098;27;20457;-59
2023/12/21 05:15:56;;;;;;;29.88;4.15;;;10.70;99.90;;;;;;5116833;27;20051;-59
2023/12/21 05:18:23;;;;;;;18.17;3.72;;;10.70;99.90;;;;;;5096225;28;20044;-59
2023/12/21 05:20:49;;;;;;;17.50;3.88;;;10.70;99.90;;;;;;5096746;28;20110;-59
2023/12/21 05:23:15;;;;;;;19.80;4.15;;;10.70;99.90;;;;;;5098905;28;20063;-60
2023/12/21 05:25:40;;;;;;;23.88;4.40;;;10.60;99.90;;;;;;5097066;28;20040;-59
2023/12/21 05:28:06;;;;;;;26.38;5.60;;;10.70;99.90;;;;;;5096728;28;20062;-61
2023/12/21 05:30:32;;;;;;;23.30;3.90;;;10.70;99.90;;;;;;5097609;28;20036;-59
2023/12/21 05:32:58;;;;;;;18.55;3.42;;;10.70;99.90;;;;;;5100489;28;20040;-59
2023/12/21 05:35:25;;;;;;;19.33;3.42;;;10.70;99.90;;;;;;5082736;28;20404;-59
2023/12/21 05:37:50;;;;;;;18.35;4.43;;;10.70;99.90;;;;;;5099363;28;20377;-59
2023/12/21 05:40:16;;;;;;;22.38;3.83;;;10.70;99.90;;;;;;5095978;28;20054;-59
2023/12/21 05:42:42;;;;;;;19.73;3.78;;;10.70;99.90;;;;;;5096192;28;20040;-59
2023/12/21 05:45:08;;;;;;;16.65;4.05;;;10.70;99.90;;;;;;5095611;28;20063;-59
2023/12/21 05:47:33;;;;;;;18.10;3.67;;;10.70;99.90;;;;;;5099161;28;20488;-59
2023/12/21 05:49:59;;;;;;;17.88;3.00;;;10.70;99.90;;;;;;5088158;28;20408;-59
2023/12/21 05:52:25;;;;;;;20.10;4.43;;;10.70;99.90;;;;;;5095449;28;20058;-59
2023/12/21 05:54:51;;;;;;;18.25;4.00;;;10.70;99.90;;;;;;5077182;28;20048;-59
2023/12/21 05:57:16;;;;;;;16.75;3.75;;;10.70;99.90;;;;;;5096095;28;20050;-59
2023/12/21 05:59:43;;;;;;;17.40;3.22;;;10.80;99.90;;;;;;5090033;28;20133;-59
2023/12/21 06:02:09;;;;;;;15.00;3.22;;;10.80;99.90;;;;;;5090302;28;20132;-59
2023/12/21 06:04:35;;;;;;;16.17;4.18;;;10.80;99.90;;;;;;5095725;28;20055;-59
2023/12/21 06:07:01;;;;;;;13.13;4.30;;;10.80;99.90;;;;;;5098195;28;20040;-59
2023/12/21 06:09:27;;;;;;;16.75;3.28;;;10.80;99.90;;;;;;5097298;28;20055;-59
2023/12/21 06:11:55;;;;;;;17.88;4.18;;;10.80;99.90;;;;;;5098246;28;20633;-59
2023/12/21 06:14:21;;;;;;;19.20;3.53;;;10.80;99.90;;;;;;5073119;28;20122;-59
2023/12/21 06:16:47;;;;;;;24.55;4.63;;;10.80;99.90;;;;;;5084089;28;20417;-59
2023/12/21 06:19:14;;;;;;;17.40;3.75;;;10.80;99.90;;;;;;5081505;28;20578;-59
2023/12/21 06:21:40;;;;;;;17.35;4.78;;;10.80;99.90;;;;;;5084885;28;20044;-59
2023/12/21 06:24:07;;;;;;;17.65;3.65;;;10.70;99.90;;;;;;5085824;28;20055;-59
2023/12/21 06:26:38;;;;;;;19.75;4.93;;;10.70;99.90;;;;;;5086414;28;20093;-59
2023/12/21 06:29:03;;;;;;;15.80;4.22;;;10.70;99.90;;;;;;5084763;28;20082;-59
2023/12/21 06:31:29;;;;;;;19.05;4.50;;;10.60;99.90;;;;;;5074908;28;20578;-59
2023/12/21 06:33:55;;;;;;;20.88;4.55;;;10.60;99.90;;;;;;5084671;28;20106;-59
2023/12/21 06:36:20;;;;;;;18.35;4.32;;;10.60;99.90;;;;;;5078723;28;20493;-59
2023/12/21 06:38:46;;;;;;;22.33;4.80;;;10.60;99.90;;;;;;5082839;28;20044;-59
2023/12/21 06:41:15;;;;;;;15.15;4.05;;;10.50;99.90;;;;;;5083673;28;20282;-59
2023/12/21 06:43:41;;;;;;;18.52;3.53;;;10.50;99.90;;;;;;5084610;28;20035;-59
2023/12/21 06:46:13;;;;;;;19.65;3.75;;;10.50;99.90;;;;;;5065539;28;20113;-59
2023/12/21 06:48:40;;;;;;;16.65;4.28;;;10.50;99.90;;;;;;5082961;28;20089;-59
2023/12/21 06:51:05;;;;;;;13.80;3.03;;;10.50;99.90;;;;;;5079674;28;20071;-59
2023/12/21 06:53:31;;;;;;;16.02;3.58;;;10.50;99.90;;;;;;5066196;28;20079;-59
2023/12/21 06:55:57;;;;;;;19.00;3.97;;;10.40;99.90;;;;;;5081764;28;20047;-59
2023/12/21 06:58:24;;;;;;;10.75;3.10;;;10.50;99.90;;;;;;5084514;28;20135;-59
2023/12/21 07:00:50;;;;;;;14.90;4.00;;;10.50;99.90;;;;;;5061840;28;20092;-59
2023/12/21 07:03:15;;;;;;;12.75;3.83;;;10.50;99.90;;;;;;5082816;28;20438;-59
2023/12/21 07:05:41;;;;;;;19.33;4.45;;;10.50;99.90;;;;;;5081551;28;20046;-59
2023/12/21 07:08:07;;;;;;;14.93;3.55;;;10.40;99.90;;;;;;5085033;28;20040;-59
2023/12/21 07:10:33;;;;;;;14.52;2.97;;;10.50;99.90;;;;;;5083545;28;20400;-59
2023/12/21 07:12:58;;;;;;;14.15;3.33;;;10.50;99.90;;;;;;5081356;28;20471;-59
2023/12/21 07:15:24;;;;;;;15.15;3.10;;;10.50;99.90;;;;;;5071317;28;20194;-59
2023/12/21 07:17:50;;;;;;;15.32;3.60;;;10.50;99.90;;;;;;5079584;28;20707;-59
2023/12/21 07:20:20;;;;;;;14.95;3.72;;;10.50;99.90;;;;;;5066284;28;20061;-59
2023/12/21 07:22:45;;;;;;;19.10;3.85;;;10.50;99.90;;;;;;5078798;28;20135;-59
2023/12/21 07:25:11;;;;;;;19.20;4.05;;;10.50;99.90;;;;;;5079270;28;20123;-59
2023/12/21 07:27:37;;;;;;;22.08;4.38;;;10.50;99.90;;;;;;5078800;28;20036;-59
2023/12/21 07:30:06;;;;;;;23.17;5.15;;;10.50;99.90;;;;;;5073505;28;20123;-59
2023/12/21 07:32:32;;;;;;;17.30;4.13;;;10.50;99.90;;;;;;5042827;28;20052;-59
2023/12/21 07:34:57;;;;;;;25.45;4.30;;;10.50;99.90;;;;;;5062486;28;20093;-59
2023/12/21 07:37:23;;;;;;;21.05;4.63;;;10.50;99.90;;;;;;5076970;28;20059;-59
2023/12/21 07:39:49;;;;;;;12.75;4.10;;;10.60;99.90;;;;;;5077216;28;20465;-59
2023/12/21 07:42:14;;;;;;;19.80;5.50;;;10.60;99.90;;;;;;5062281;28;20044;-59
2023/12/21 07:44:40;;;;;;;19.65;3.95;;;10.60;99.90;;;;;;5069157;28;20093;-59
2023/12/21 07:47:06;;;;;;;21.00;4.90;;;10.60;99.90;;;;;;5079437;28;20135;-59
2023/12/21 07:49:32;;;;;;;20.45;4.47;;;10.60;99.90;;;;;;5083559;28;20032;-59
2023/12/21 07:51:57;;;;;;;25.17;4.45;;;10.70;99.90;;;;;;5079382;28;20527;-59
2023/12/21 07:54:23;;;;;;;23.08;5.28;;;10.60;99.90;;;;;;5083576;28;20465;-59
2023/12/21 07:56:49;;;;;;;27.08;5.80;;;10.60;99.90;;;;;;5082202;28;20182;-59
2023/12/21 07:59:14;;;;;;;25.20;6.15;;;10.70;99.90;;;;;;5079099;28;20127;-59
2023/12/21 08:01:40;;;;;;;32.00;5.60;;;10.70;99.90;;;;;;5079910;28;20051;-59
2023/12/21 08:04:09;;;;;;;19.13;4.55;;;10.70;99.90;;;;;;5080048;28;20032;-59
2023/12/21 08:06:35;;;;;;;22.77;4.47;;;10.70;99.90;;;;;;5059540;28;20029;-59
2023/12/21 08:09:01;;;;;;;25.90;4.78;;;10.80;99.90;;;;;;5080442;28;20054;-59
2023/12/21 08:11:26;;;;;;;18.98;4.10;;;10.80;99.90;;;;;;5078704;28;20044;-59
2023/12/21 08:13:52;;;;;;;25.95;5.25;;;10.90;99.90;;;;;;5083636;28;20313;-59
2023/12/21 08:16:18;;;;;;;27.30;4.75;;;10.90;99.90;;;;;;5081223;28;20531;-59
2023/12/21 08:18:44;;;;;;;28.02;5.25;;;11.00;99.90;;;;;;5081275;28;20054;-61
2023/12/21 08:21:10;;;;;;;23.25;5.03;;;11.00;99.90;;;;;;5083077;28;20044;-59
2023/12/21 08:23:36;;;;;;;27.67;5.70;;;11.00;99.90;;;;;;5080160;28;20071;-59
2023/12/21 08:26:06;;;;;;;30.73;5.97;;;11.10;99.90;;;;;;5080325;28;20036;-58
2023/12/21 08:28:32;;;;;;;27.50;4.85;;;11.10;99.90;;;;;;5078332;28;20100;-59
2023/12/21 08:30:59;;;;;;;25.20;4.68;;;11.20;99.90;;;;;;5080360;28;20056;-59
2023/12/21 08:33:25;;;;;;;24.98;4.75;;;11.10;99.90;;;;;;5081885;28;20060;-59
2023/12/21 08:35:52;;;;;;;37.30;6.28;;;11.10;99.90;;;;;;5083033;28;20032;-59
2023/12/21 08:38:17;;;;;;;31.95;6.75;;;11.10;99.90;;;;;;5079574;28;20040;-59
2023/12/21 08:40:43;;;;;;;27.67;5.57;;;11.10;99.90;;;;;;5083987;28;20096;-58
2023/12/21 08:43:09;;;;;;;30.80;4.78;;;11.10;99.90;;;;;;5058126;28;20117;-59
2023/12/21 08:45:35;;;;;;;27.10;5.63;;;11.10;99.90;;;;;;5079215;28;20555;-59
2023/12/21 08:48:01;;;;;;;29.33;5.78;;;11.10;99.90;;;;;;5081983;28;20380;-59
2023/12/21 08:50:26;;;;;;;25.30;4.75;;;11.10;99.90;;;;;;5082551;28;20495;-59
2023/12/21 08:52:52;;;;;;;30.27;6.07;;;11.10;99.90;;;;;;5078777;28;20070;-59
2023/12/21 08:55:18;;;;;;;26.55;5.78;;;11.10;99.90;;;;;;5083031;28;20075;-59
2023/12/21 08:57:43;;;;;;;19.42;4.97;;;11.10;99.90;;;;;;5082960;28;20205;-59
2023/12/21 09:00:13;;;;;;;32.15;5.95;;;11.10;99.90;;;;;;5060921;28;20048;-59
2023/12/21 09:02:39;;;;;;;34.03;5.70;;;11.20;99.90;;;;;;5080352;28;20040;-59
2023/12/21 09:05:06;;;;;;;25.00;5.38;;;11.20;99.90;;;;;;5073026;28;20044;-59
2023/12/21 09:07:33;;;;;;;27.58;4.65;;;11.20;99.90;;;;;;5080679;28;21072;-59
2023/12/21 09:10:00;;;;;;;28.48;4.93;;;11.20;99.90;;;;;;5082292;28;20040;-59
2023/12/21 09:12:25;;;;;;;27.85;4.88;;;11.30;99.90;;;;;;5082513;28;20044;-59
2023/12/21 09:14:52;;;;;;;23.88;4.88;;;11.30;99.90;;;;;;5067440;28;20040;-58
2023/12/21 09:17:19;;;;;;;32.22;5.38;;;11.30;99.90;;;;;;5077063;28;20040;-59
2023/12/21 09:19:44;;;;;;;26.50;5.55;;;11.30;99.90;;;;;;5075999;28;20465;-59
2023/12/21 09:22:10;;;;;;;36.97;6.32;;;11.30;99.90;;;;;;5078263;28;20183;-59
2023/12/21 09:24:38;;;;;;;25.73;4.90;;;11.40;99.90;;;;;;5082667;28;20119;-59
2023/12/21 09:27:04;;;;;;;18.20;4.40;;;11.50;99.90;;;;;;5079585;28;20060;-59
2023/12/21 09:29:30;;;;;;;23.55;5.18;;;11.50;99.90;;;;;;5080945;28;20052;-59
2023/12/21 09:31:56;;;;;;;18.90;4.40;;;11.60;99.90;;;;;;5077948;28;20086;-59
2023/12/21 09:34:21;;;;;;;25.70;4.47;;;11.70;99.90;;;;;;5081375;28;20063;-59
2023/12/21 09:36:47;;;;;;;24.25;5.43;;;11.70;99.90;;;;;;5075781;28;20546;-59
2023/12/21 09:39:34;;;;;;;20.08;4.22;;;11.70;99.90;;;;;;5078700;28;20063;-59
2023/12/21 09:42:00;;;;;;;29.13;4.97;;;11.70;99.90;;;;;;5079623;28;20059;-59
2023/12/21 09:44:30;;;;;;;30.40;5.38;;;11.70;99.90;;;;;;5082021;28;20043;-59
2023/12/21 09:46:56;;;;;;;28.00;4.88;;;11.70;99.90;;;;;;5078959;28;20060;-59
2023/12/21 09:49:23;;;;;;;28.17;5.28;;;11.70;99.90;;;;;;5081879;28;20038;-59
2023/12/21 09:51:49;;;;;;;22.13;4.03;;;11.70;99.90;;;;;;5089238;28;20484;-59
2023/12/21 09:54:17;;;;;;;28.80;5.05;;;11.70;99.90;;;;;;5087981;28;20130;-59
2023/12/21 09:56:46;;;;;;;26.10;4.88;;;11.70;99.90;;;;;;5087059;28;20047;-59
2023/12/21 09:59:13;;;;;;;25.20;4.90;;;11.70;99.90;;;;;;5103596;28;20040;-59
2023/12/21 10:01:39;;;;;;;26.42;4.03;;;11.70;99.90;;;;;;5088014;28;20028;-59
2023/12/21 10:04:07;;;;;;;18.35;4.50;;;11.80;99.90;;;;;;5082530;28;20047;-59
2023/12/21 10:06:33;;;;;;;19.98;4.13;;;11.80;99.90;;;;;;5065995;28;20706;-59
2023/12/21 10:08:59;;;;;;;31.15;4.75;;;11.90;99.90;;;;;;5085865;28;20047;-59
2023/12/21 10:11:25;;;;;;;23.30;4.35;;;11.90;99.90;;;;;;5088593;28;20040;-59
2023/12/21 10:13:55;;;;;;;23.65;4.28;;;12.00;99.90;;;;;;5086627;28;20036;-59
2023/12/21 10:16:21;;;;;;;18.88;4.35;;;12.00;99.90;;;;;;5071421;28;20044;-59
2023/12/21 10:18:48;;;;;;;23.00;4.85;;;12.10;99.90;;;;;;5081659;28;20029;-59
2023/12/21 10:21:15;;;;;;;22.63;4.72;;;12.10;99.90;;;;;;5077832;28;20080;-59
2023/12/21 10:23:41;;;;;;;20.33;3.83;;;12.20;99.90;;;;;;5073540;28;20048;-59
2023/12/21 10:26:07;;;;;;;22.08;5.38;;;12.10;99.90;;;;;;5085022;28;20026;-59
2023/12/21 10:28:33;;;;;;;18.15;3.53;;;12.10;99.90;;;;;;5089402;28;20036;-59
2023/12/21 10:31:01;;;;;;;18.95;3.92;;;12.10;99.90;;;;;;5083484;28;20076;-59
2023/12/21 10:33:28;;;;;;;21.77;4.53;;;12.20;99.90;;;;;;5086505;28;20132;-59
2023/12/21 10:35:53;;;;;;;19.45;4.57;;;12.20;99.90;;;;;;5086180;28;20502;-59
2023/12/21 10:38:23;;;;;;;21.17;3.90;;;12.20;99.90;;;;;;5081333;28;20064;-59
2023/12/21 10:40:51;;;;;;;19.38;3.83;;;12.20;99.90;;;;;;5079373;28;20036;-59
2023/12/21 10:43:18;;;;;;;22.10;4.35;;;12.10;99.90;;;;;;5064942;28;20040;-58
2023/12/21 10:45:45;;;;;;;19.30;4.85;;;12.20;99.90;;;;;;5068549;28;20036;-59
2023/12/21 10:48:19;;;;;;;31.80;4.93;;;12.10;99.90;;;;;;5065321;28;20209;-59
2023/12/21 10:50:47;;;;;;;28.42;5.15;;;12.10;99.90;;;;;;5083235;28;20036;-59
2023/12/21 10:53:13;;;;;;;28.60;6.18;;;12.20;99.90;;;;;;5078559;28;20047;-59
2023/12/21 10:55:44;;;;;;;28.02;5.45;;;12.10;99.90;;;;;;5080847;28;20510;-59
2023/12/21 10:58:11;;;;;;;27.88;5.57;;;12.20;99.90;;;;;;5082419;28;20101;-59
2023/12/21 11:00:38;;;;;;;23.45;4.93;;;12.10;99.90;;;;;;5080289;28;20067;-59
2023/12/21 11:03:09;;;;;;;25.98;5.35;;;12.20;99.90;;;;;;5062522;28;20048;-59
2023/12/21 11:05:36;;;;;;;32.85;6.03;;;12.20;99.90;;;;;;5081639;28;20067;-59
2023/12/21 11:08:03;;;;;;;30.05;5.97;;;12.20;99.90;;;;;;5065807;28;20123;-59
2023/12/21 11:10:30;;;;;;;28.90;5.10;;;12.20;99.90;;;;;;5080985;28;20052;-59
2023/12/21 11:12:56;;;;;;;24.08;4.40;;;12.10;99.90;;;;;;5085077;28;20044;-59
2023/12/21 11:15:23;;;;;;;20.90;5.00;;;12.10;99.90;;;;;;5087074;28;20074;-59
2023/12/21 11:18:11;;;;;;;28.85;4.78;;;12.20;99.90;;;;;;5083593;28;20439;-59
2023/12/21 11:20:43;;;;;;;25.73;4.57;;;12.20;99.90;;;;;;5081863;28;20059;-59
2023/12/21 11:23:09;;;;;;;29.33;4.97;;;12.30;99.90;;;;;;5083164;28;20052;-59
2023/12/21 11:25:35;;;;;;;30.83;5.32;;;12.20;99.90;;;;;;5086106;28;20032;-59
2023/12/21 11:28:02;;;;;;;24.15;4.93;;;12.20;99.90;;;;;;5087298;28;20523;-59
2023/12/21 11:30:29;;;;;;;23.48;5.78;;;12.30;99.90;;;;;;5078594;28;20111;-59
2023/12/21 11:33:10;;;;;;;27.08;5.32;;;12.30;99.90;;;;;;5078039;28;20109;-59
2023/12/21 11:35:36;;;;;;;29.67;6.45;;;12.30;99.90;;;;;;5083453;28;20115;-59
2023/12/21 11:38:06;;;;;;;24.25;6.30;;;12.30;99.90;;;;;;5073330;28;20055;-60
2023/12/21 11:40:33;;;;;;;26.88;7.70;;;12.30;99.90;;;;;;5056510;28;20096;-59
2023/12/21 11:43:01;;;;;;;25.65;5.38;;;12.30;99.90;;;;;;5081343;28;20906;-59
2023/12/21 11:45:31;;;;;;;23.20;5.30;;;12.40;99.90;;;;;;5062909;28;20571;-59
2023/12/21 11:48:04;;;;;;;27.40;5.93;;;12.30;99.90;;;;;;5062008;28;20058;-60
2023/12/21 11:50:31;;;;;;;27.98;7.03;;;12.40;99.90;;;;;;5081184;28;20036;-59
2023/12/21 11:53:08;;;;;;;29.30;6.40;;;12.40;99.90;;;;;;5079556;28;20055;-59
2023/12/21 11:55:44;;;;;;;25.88;5.03;;;12.40;99.90;;;;;;5072098;28;20205;-58
2023/12/21 11:58:21;;;;;;;24.73;6.35;;;12.40;99.90;;;;;;5075788;28;20047;-59
2023/12/21 12:00:50;;;;;;;28.90;4.80;;;12.40;99.90;;;;;;5095367;27;20056;-59
2023/12/21 12:03:16;;;;;;;25.17;5.90;;;12.40;99.90;;;;;;5081644;28;20052;-59
2023/12/21 12:05:44;;;;;;;21.58;4.90;;;12.40;99.90;;;;;;5079128;28;20091;-59
2023/12/21 12:08:10;;;;;;;27.25;5.13;;;12.50;99.90;;;;;;5077602;28;20037;-59
2023/12/21 12:10:36;;;;;;;28.02;5.38;;;12.40;99.90;;;;;;5082319;28;20040;-58
2023/12/21 12:13:03;;;;;;;25.05;5.53;;;12.40;99.90;;;;;;5079121;28;20048;-59
2023/12/21 12:15:29;;;;;;;30.23;5.97;;;12.40;99.90;;;;;;5077146;28;20051;-59
2023/12/21 12:17:55;;;;;;;29.45;5.85;;;12.40;99.90;;;;;;5082408;28;21561;-59
2023/12/21 12:20:21;;;;;;;23.35;4.95;;;12.40;99.90;;;;;;5075269;28;20044;-59
2023/12/21 12:22:49;;;;;;;26.30;4.85;;;12.40;99.90;;;;;;5079326;28;20071;-59
2023/12/21 12:25:18;;;;;;;23.92;4.72;;;12.40;99.90;;;;;;5077985;28;20032;-59
2023/12/21 12:27:44;;;;;;;24.83;4.75;;;12.40;99.90;;;;;;5081981;28;20105;-59
2023/12/21 12:30:12;;;;;;;28.55;5.22;;;12.40;99.90;;;;;;5075283;28;20131;-58
2023/12/21 12:32:38;;;;;;;19.55;4.57;;;12.30;99.90;;;;;;5077387;28;20056;-58
2023/12/21 12:35:06;;;;;;;25.30;5.65;;;12.30;99.90;;;;;;5082537;28;20523;-59
2023/12/21 12:37:32;;;;;;;23.50;5.65;;;12.20;99.90;;;;;;5084660;28;20040;-59
2023/12/21 12:39:58;;;;;;;25.98;5.47;;;12.30;99.90;;;;;;5081571;28;20482;-58
2023/12/21 12:42:24;;;;;;;27.27;5.25;;;12.30;99.90;;;;;;5083621;28;20044;-59
2023/12/21 12:44:53;;;;;;;27.17;5.60;;;12.30;99.90;;;;;;5077477;28;20386;-59
2023/12/21 12:47:20;;;;;;;27.75;5.93;;;12.30;99.90;;;;;;5074833;28;20032;-59
2023/12/21 12:49:45;;;;;;;34.30;8.27;;;12.20;99.90;;;;;;5073510;28;20443;-59
2023/12/21 12:52:18;;;;;;;26.48;6.75;;;12.20;99.90;;;;;;5083043;28;20074;-58
2023/12/21 12:54:46;;;;;;;23.33;5.85;;;12.20;99.90;;;;;;5081420;28;20121;-59
2023/12/21 12:57:12;;;;;;;25.77;6.10;;;12.10;99.90;;;;;;5077452;28;20044;-59